createdAt,value
2018-07-03T00:01:36.770Z,0.90
2018-07-03T00:04:05.954Z,0.72
2018-07-03T00:06:34.870Z,0.82
2018-07-03T00:09:04.398Z,1.30
2018-07-03T00:11:33.267Z,0.90
2018-07-03T00:14:02.154Z,0.90
2018-07-03T00:16:36.258Z,0.80
2018-07-03T00:19:05.230Z,0.80
2018-07-03T00:21:34.094Z,1.00
2018-07-03T00:24:02.990Z,1.00
2018-07-03T00:26:31.855Z,0.80
2018-07-03T00:29:00.754Z,0.70
2018-07-03T00:31:29.642Z,1.02
2018-07-03T00:33:58.635Z,0.80
2018-07-03T00:36:27.499Z,1.00
2018-07-03T00:38:56.422Z,1.00
2018-07-03T00:41:25.337Z,1.10
2018-07-03T00:43:53.957Z,1.00
2018-07-03T00:46:22.767Z,0.98
2018-07-03T00:48:51.750Z,1.00
2018-07-03T00:51:20.643Z,0.80
2018-07-03T00:53:49.534Z,0.80
2018-07-03T00:56:18.407Z,0.80
2018-07-03T00:58:47.540Z,0.90
2018-07-03T01:01:16.413Z,1.05
2018-07-03T01:03:45.334Z,1.20
2018-07-03T01:06:14.205Z,0.93
2018-07-03T01:08:43.099Z,1.20
2018-07-03T01:11:11.974Z,0.82
2018-07-03T01:13:40.893Z,0.90
2018-07-03T01:16:09.798Z,1.05
2018-07-03T01:18:38.677Z,1.15
2018-07-03T01:21:07.566Z,0.85
2018-07-03T01:23:36.458Z,1.20
2018-07-03T01:26:06.164Z,1.50
2018-07-03T01:28:35.057Z,1.02
2018-07-03T01:31:03.936Z,0.93
2018-07-03T01:33:32.855Z,0.90
2018-07-03T01:36:01.753Z,1.10
2018-07-03T01:38:30.642Z,0.95
2018-07-03T01:40:59.566Z,0.82
2018-07-03T01:43:28.494Z,1.77
2018-07-03T01:45:57.401Z,0.65
2018-07-03T01:48:26.314Z,1.00
2018-07-03T01:50:55.270Z,0.95
2018-07-03T01:53:24.218Z,1.00
2018-07-03T01:55:53.127Z,1.32
2018-07-03T01:58:22.139Z,1.25
2018-07-03T02:00:51.078Z,0.98
2018-07-03T02:03:19.954Z,1.42
2018-07-03T02:05:48.837Z,1.07
2018-07-03T02:08:17.766Z,0.90
2018-07-03T02:10:46.626Z,0.80
2018-07-03T02:13:15.597Z,1.07
2018-07-03T02:15:44.506Z,1.25
2018-07-03T02:18:13.374Z,1.10
2018-07-03T02:20:42.367Z,0.80
2018-07-03T02:23:11.241Z,1.20
2018-07-03T02:25:40.151Z,1.37
2018-07-03T02:28:09.023Z,1.15
2018-07-03T02:30:37.981Z,1.00
2018-07-03T02:33:06.894Z,1.00
2018-07-03T02:35:35.802Z,1.15
2018-07-03T02:38:04.734Z,1.32
2018-07-03T02:40:33.704Z,1.32
2018-07-03T02:43:02.579Z,1.15
2018-07-03T02:45:31.490Z,1.32
2018-07-03T02:48:00.074Z,1.20
2018-07-03T02:50:28.874Z,1.00
2018-07-03T02:52:57.773Z,0.98
2018-07-03T02:55:26.696Z,1.35
2018-07-03T02:57:55.585Z,1.20
2018-07-03T03:00:24.509Z,1.27
2018-07-03T03:02:53.542Z,1.17
2018-07-03T03:05:22.553Z,1.05
2018-07-03T03:07:51.450Z,1.37
2018-07-03T03:10:20.375Z,1.10
2018-07-03T03:12:49.600Z,1.20
2018-07-03T03:15:18.502Z,1.30
2018-07-03T03:17:47.389Z,1.30
2018-07-03T03:20:16.290Z,1.27
2018-07-03T03:22:45.386Z,1.92
2018-07-03T03:25:14.307Z,1.10
2018-07-03T03:27:43.170Z,1.17
2018-07-03T03:30:12.070Z,1.30
2018-07-03T03:32:40.949Z,1.22
2018-07-03T03:35:09.856Z,1.20
2018-07-03T03:37:38.734Z,1.20
2018-07-03T03:40:08.058Z,1.10
2018-07-03T03:42:36.923Z,1.12
2018-07-03T03:45:05.854Z,1.15
2018-07-03T03:47:34.730Z,1.12
2018-07-03T03:50:03.971Z,1.12
2018-07-03T03:52:33.026Z,1.07
2018-07-03T03:55:02.030Z,1.20
2018-07-03T03:57:30.877Z,1.27
2018-07-03T03:59:59.770Z,1.30
2018-07-03T04:02:28.641Z,1.98
2018-07-03T04:04:58.381Z,1.37
2018-07-03T04:07:27.287Z,1.35
2018-07-03T04:09:56.217Z,1.40
2018-07-03T04:12:25.122Z,1.30
2018-07-03T04:14:54.025Z,1.50
2018-07-03T04:17:22.959Z,1.37
2018-07-03T04:19:51.839Z,1.60
2018-07-03T04:22:20.744Z,1.55
2018-07-03T04:24:49.666Z,1.60
2018-07-03T04:27:18.550Z,1.70
2018-07-03T04:29:47.726Z,1.40
2018-07-03T04:32:16.613Z,1.40
2018-07-03T04:34:45.498Z,1.30
2018-07-03T04:37:14.398Z,1.52
2018-07-03T04:39:43.284Z,1.70
2018-07-03T04:42:12.171Z,1.05
2018-07-03T04:44:41.067Z,1.00
2018-07-03T04:47:09.963Z,1.20
2018-07-03T04:49:38.870Z,1.40
2018-07-03T04:52:07.726Z,1.27
2018-07-03T04:54:36.647Z,1.15
2018-07-03T04:57:05.851Z,1.30
2018-07-03T04:59:34.918Z,1.25
2018-07-03T05:02:03.834Z,1.45
2018-07-03T05:04:32.758Z,1.35
2018-07-03T05:07:01.652Z,1.42
2018-07-03T05:09:30.550Z,1.47
2018-07-03T05:11:59.502Z,1.55
2018-07-03T05:14:28.482Z,1.37
2018-07-03T05:16:57.922Z,1.50
2018-07-03T05:19:28.670Z,1.12
2018-07-03T05:21:57.576Z,1.60
2018-07-03T05:24:26.546Z,1.60
2018-07-03T05:26:56.214Z,1.50
2018-07-03T05:29:25.417Z,1.60
2018-07-03T05:31:55.314Z,1.65
2018-07-03T05:34:24.486Z,1.30
2018-07-03T05:36:53.679Z,1.52
2018-07-03T05:39:27.790Z,2.10
2018-07-03T05:41:56.836Z,1.90
2018-07-03T05:44:27.338Z,1.32
2018-07-03T05:46:57.131Z,1.47
2018-07-03T05:49:29.994Z,1.20
2018-07-03T05:51:58.925Z,1.40
2018-07-03T05:54:27.867Z,1.10
2018-07-03T05:56:56.777Z,1.72
2018-07-03T05:59:25.681Z,1.70
2018-07-03T06:01:54.694Z,1.40
2018-07-03T06:04:23.613Z,1.60
2018-07-03T06:06:52.547Z,1.32
2018-07-03T06:09:21.237Z,1.20
2018-07-03T06:11:49.981Z,1.30
2018-07-03T06:14:18.875Z,1.42
2018-07-03T06:16:47.870Z,1.15
2018-07-03T06:19:16.742Z,1.37
2018-07-03T06:21:45.645Z,1.87
2018-07-03T06:24:14.530Z,1.62
2018-07-03T06:26:43.458Z,1.00
2018-07-03T06:29:12.334Z,1.12
2018-07-03T06:31:41.266Z,1.10
2018-07-03T06:34:10.794Z,1.47
2018-07-03T06:36:39.731Z,1.50
2018-07-03T06:39:11.052Z,1.22
2018-07-03T06:41:40.158Z,1.35
2018-07-03T06:44:09.323Z,1.05
2018-07-03T06:46:38.218Z,1.00
2018-07-03T06:49:07.163Z,0.70
2018-07-03T06:51:36.110Z,1.05
2018-07-03T06:54:05.168Z,0.90
2018-07-03T06:56:34.239Z,1.02
2018-07-03T06:59:03.334Z,1.20
2018-07-03T07:01:32.238Z,1.10
2018-07-03T07:04:01.102Z,1.40
2018-07-03T07:06:30.015Z,4.53
2018-07-03T07:08:58.993Z,1.02
2018-07-03T07:11:27.777Z,0.82
2018-07-03T07:13:56.691Z,1.02
2018-07-03T07:16:25.610Z,1.10
2018-07-03T07:18:54.537Z,0.93
2018-07-03T07:21:23.466Z,1.00
2018-07-03T07:23:52.382Z,1.00
2018-07-03T07:26:21.316Z,0.90
2018-07-03T07:28:50.207Z,1.15
2018-07-03T07:31:19.114Z,1.02
2018-07-03T07:33:48.004Z,1.17
2018-07-03T07:36:16.894Z,1.15
2018-07-03T07:38:45.774Z,1.07
2018-07-03T07:41:14.678Z,0.90
2018-07-03T07:43:43.576Z,1.10
2018-07-03T07:46:12.494Z,1.00
2018-07-03T07:48:41.412Z,0.90
2018-07-03T07:51:10.362Z,1.00
2018-07-03T07:53:39.263Z,0.85
2018-07-03T07:56:08.171Z,1.10
2018-07-03T07:58:37.066Z,1.17
2018-07-03T08:01:05.978Z,1.10
2018-07-03T08:03:34.845Z,0.80
2018-07-03T08:06:03.809Z,0.88
2018-07-03T08:08:32.389Z,1.10
2018-07-03T08:11:01.235Z,0.93
2018-07-03T08:13:30.094Z,0.90
2018-07-03T08:15:59.018Z,1.07
2018-07-03T08:18:27.990Z,1.52
2018-07-03T08:20:56.905Z,1.10
2018-07-03T08:23:25.915Z,0.87
2018-07-03T08:25:54.886Z,1.00
2018-07-03T08:28:23.787Z,1.30
2018-07-03T08:30:52.732Z,1.10
2018-07-03T08:33:22.006Z,1.00
2018-07-03T08:35:50.970Z,1.07
2018-07-03T08:38:19.863Z,1.00
2018-07-03T08:40:49.123Z,1.00
2018-07-03T08:43:17.979Z,1.00
2018-07-03T08:45:46.906Z,1.10
2018-07-03T08:48:15.794Z,0.90
2018-07-03T08:50:44.689Z,1.00
2018-07-03T08:53:13.562Z,0.97
2018-07-03T08:55:42.490Z,0.90
2018-07-03T08:58:11.415Z,0.90
2018-07-03T09:00:40.266Z,1.00
2018-07-03T09:03:09.153Z,0.87
2018-07-03T09:05:38.058Z,0.90
2018-07-03T09:08:07.004Z,0.73
2018-07-03T09:10:35.894Z,1.00
2018-07-03T09:13:04.826Z,0.80
2018-07-03T09:15:33.718Z,1.00
2018-07-03T09:18:02.638Z,0.90
2018-07-03T09:20:31.482Z,0.80
2018-07-03T09:23:00.417Z,0.83
2018-07-03T09:25:29.359Z,1.00
2018-07-03T09:27:57.949Z,0.90
2018-07-03T09:30:26.874Z,1.00
2018-07-03T09:32:55.734Z,0.80
2018-07-03T09:35:24.695Z,0.90
2018-07-03T09:37:53.583Z,1.20
2018-07-03T09:40:22.487Z,1.50
2018-07-03T09:42:51.402Z,0.87
2018-07-03T09:45:20.305Z,0.70
2018-07-03T09:47:49.219Z,1.00
2018-07-03T09:50:18.110Z,0.83
2018-07-03T09:52:47.019Z,1.03
2018-07-03T09:55:16.014Z,0.83
2018-07-03T09:57:45.032Z,0.80
2018-07-03T10:00:13.923Z,0.80
2018-07-03T10:02:42.806Z,0.90
2018-07-03T10:05:11.713Z,0.80
2018-07-03T10:07:40.602Z,1.00
2018-07-03T10:10:09.474Z,1.00
2018-07-03T10:12:38.374Z,0.90
2018-07-03T10:15:07.285Z,0.87
2018-07-03T10:17:36.201Z,1.00
2018-07-03T10:20:05.186Z,0.90
2018-07-03T10:22:34.094Z,1.00
2018-07-03T10:25:02.987Z,0.80
2018-07-03T10:27:31.897Z,0.93
2018-07-03T10:30:00.833Z,1.17
2018-07-03T10:32:29.747Z,0.90
2018-07-03T10:34:58.672Z,0.90
2018-07-03T10:37:27.553Z,0.93
2018-07-03T10:39:56.631Z,1.20
2018-07-03T10:42:25.650Z,1.10
2018-07-03T10:44:54.674Z,1.00
2018-07-03T10:47:23.602Z,0.80
2018-07-03T10:49:52.532Z,1.13
2018-07-03T10:52:21.490Z,1.10
2018-07-03T10:54:50.401Z,1.00
2018-07-03T10:57:19.319Z,0.80
2018-07-03T10:59:48.452Z,1.13
2018-07-03T11:02:17.338Z,1.10
2018-07-03T11:04:46.210Z,1.10
2018-07-03T11:07:15.159Z,0.70
2018-07-03T11:09:44.062Z,1.20
2018-07-03T11:12:12.950Z,0.80
2018-07-03T11:14:41.823Z,1.57
2018-07-03T11:17:10.802Z,0.80
2018-07-03T11:19:39.733Z,1.17
2018-07-03T11:22:08.618Z,0.93
2018-07-03T11:24:37.518Z,0.80
2018-07-03T11:27:06.438Z,0.70
2018-07-03T11:29:35.314Z,0.80
2018-07-03T11:32:04.242Z,3.00
2018-07-03T11:34:33.187Z,0.90
2018-07-03T11:37:02.074Z,1.00
2018-07-03T11:39:30.976Z,0.80
2018-07-03T11:41:59.879Z,1.20
2018-07-03T11:44:28.767Z,1.73
2018-07-03T11:46:57.682Z,1.00
2018-07-03T11:49:26.281Z,1.00
2018-07-03T11:51:55.209Z,0.87
2018-07-03T11:54:25.148Z,0.90
2018-07-03T11:56:54.095Z,0.90
2018-07-03T11:59:22.992Z,0.90
2018-07-03T12:01:52.002Z,0.90
2018-07-03T12:04:20.940Z,0.90
2018-07-03T12:06:49.994Z,1.10
2018-07-03T12:09:18.862Z,0.80
2018-07-03T12:11:47.901Z,0.90
2018-07-03T12:14:16.811Z,0.90
2018-07-03T12:16:45.709Z,0.90
2018-07-03T12:19:14.586Z,0.90
2018-07-03T12:21:43.471Z,1.27
2018-07-03T12:24:12.466Z,0.70
2018-07-03T12:26:41.378Z,0.97
2018-07-03T12:29:10.002Z,0.67
2018-07-03T12:31:38.794Z,0.90
2018-07-03T12:34:07.702Z,0.83
2018-07-03T12:36:36.612Z,0.80
2018-07-03T12:39:08.447Z,0.70
2018-07-03T12:41:37.529Z,0.90
2018-07-03T12:44:06.757Z,0.87
2018-07-03T12:46:35.602Z,1.30
2018-07-03T12:49:04.750Z,1.07
2018-07-03T12:51:33.642Z,0.83
2018-07-03T12:54:02.768Z,1.30
2018-07-03T12:56:31.672Z,0.70
2018-07-03T12:59:00.567Z,0.80
2018-07-03T13:01:29.505Z,0.70
2018-07-03T13:03:58.410Z,0.73
2018-07-03T13:06:27.330Z,1.20
2018-07-03T13:08:56.254Z,1.10
2018-07-03T13:11:25.187Z,0.90
2018-07-03T13:13:54.149Z,1.13
2018-07-03T13:16:22.729Z,1.07
2018-07-03T13:18:51.583Z,1.10
2018-07-03T13:21:20.629Z,0.93
2018-07-03T13:23:49.504Z,0.80
2018-07-03T13:26:18.386Z,1.00
2018-07-03T13:28:47.270Z,0.80
2018-07-03T13:31:16.149Z,1.00
2018-07-03T13:33:45.054Z,1.00
2018-07-03T13:36:16.820Z,0.87
2018-07-03T13:38:45.725Z,0.90
2018-07-03T13:41:14.611Z,0.83
2018-07-03T13:43:43.483Z,1.00
2018-07-03T13:46:12.434Z,1.00
2018-07-03T13:48:41.334Z,0.90
2018-07-03T13:51:10.205Z,0.90
2018-07-03T13:53:39.107Z,0.70
2018-07-03T13:56:08.113Z,1.00
2018-07-03T13:58:36.985Z,1.10
2018-07-03T14:01:05.870Z,1.23
2018-07-03T14:03:34.743Z,1.00
2018-07-03T14:06:03.630Z,1.00
2018-07-03T14:08:32.515Z,0.87
2018-07-03T14:11:01.438Z,1.17
2018-07-03T14:13:30.346Z,0.83
2018-07-03T14:15:59.212Z,1.10
2018-07-03T14:18:28.171Z,0.90
2018-07-03T14:20:58.592Z,0.97
2018-07-03T14:23:28.538Z,0.70
2018-07-03T14:25:57.843Z,0.83
2018-07-03T14:28:26.757Z,1.00
2018-07-03T14:30:55.690Z,0.90
2018-07-03T14:33:24.315Z,1.10
2018-07-03T14:35:53.114Z,1.10
2018-07-03T14:38:22.038Z,1.00
2018-07-03T14:40:50.977Z,1.10
2018-07-03T14:43:19.873Z,0.93
2018-07-03T14:45:48.774Z,0.80
2018-07-03T14:48:17.664Z,0.87
2018-07-03T14:50:46.625Z,0.70
2018-07-03T14:53:15.467Z,1.03
2018-07-03T14:55:44.367Z,1.00
2018-07-03T14:58:13.287Z,0.93
2018-07-03T15:00:42.154Z,0.90
2018-07-03T15:03:11.051Z,0.80
2018-07-03T15:05:39.942Z,1.00
2018-07-03T15:08:08.818Z,1.07
2018-07-03T15:10:37.679Z,1.07
2018-07-03T15:13:06.587Z,0.70
2018-07-03T15:15:35.546Z,0.80
2018-07-03T15:18:04.469Z,0.90
2018-07-03T15:20:33.354Z,1.00
2018-07-03T15:23:02.223Z,0.87
2018-07-03T15:25:31.087Z,0.93
2018-07-03T15:27:59.980Z,0.70
2018-07-03T15:30:28.846Z,1.10
2018-07-03T15:32:57.714Z,0.87
2018-07-03T15:35:26.642Z,0.83
2018-07-03T15:37:55.695Z,0.80
2018-07-03T15:40:24.696Z,1.10
2018-07-03T15:42:53.659Z,0.80
2018-07-03T15:45:22.609Z,0.83
2018-07-03T15:47:51.568Z,1.00
2018-07-03T15:50:20.494Z,0.77
2018-07-03T15:52:49.424Z,0.80
2018-07-03T15:55:18.310Z,0.90
2018-07-03T15:57:47.182Z,0.97
2018-07-03T16:00:16.225Z,0.90
2018-07-03T16:04:56.799Z,1.07
2018-07-03T16:07:36.918Z,0.80
2018-07-03T16:10:05.836Z,0.90
2018-07-03T16:12:34.790Z,0.90
2018-07-03T16:15:03.722Z,0.80
2018-07-03T16:17:32.606Z,0.90
2018-07-03T16:20:06.706Z,1.10
2018-07-03T16:22:35.601Z,1.00
2018-07-03T16:25:04.788Z,1.47
2018-07-03T16:27:33.551Z,0.90
2018-07-03T16:30:02.566Z,0.97
2018-07-03T16:32:31.451Z,0.83
2018-07-03T16:35:00.319Z,0.90
2018-07-03T16:37:29.218Z,0.80
2018-07-03T16:39:58.287Z,0.90
2018-07-03T16:42:27.205Z,0.80
2018-07-03T16:44:56.257Z,1.00
2018-07-03T16:47:25.222Z,1.03
2018-07-03T16:49:54.102Z,0.97
2018-07-03T16:52:23.036Z,0.93
2018-07-03T16:54:51.942Z,0.90
2018-07-03T16:57:20.866Z,1.10
2018-07-03T16:59:49.750Z,1.00
2018-07-03T17:02:18.650Z,1.03
2018-07-03T17:04:47.578Z,1.20
2018-07-03T17:07:16.651Z,0.97
2018-07-03T17:09:45.592Z,1.30
2018-07-03T17:12:14.533Z,1.03
2018-07-03T17:14:43.483Z,0.90
2018-07-03T17:17:12.384Z,1.00
2018-07-03T17:19:42.175Z,0.80
2018-07-03T17:22:11.506Z,0.90
2018-07-03T17:24:40.364Z,1.07
2018-07-03T17:27:09.254Z,0.77
2018-07-03T17:29:38.104Z,0.80
2018-07-03T17:32:06.986Z,1.13
2018-07-03T17:34:35.837Z,1.00
2018-07-03T17:37:04.770Z,0.90
2018-07-03T17:39:45.010Z,1.00
2018-07-03T17:42:25.126Z,1.00
2018-07-03T17:46:02.645Z,0.90
2018-07-03T17:48:31.529Z,1.20
2018-07-03T17:51:00.491Z,0.80
2018-07-03T17:53:29.633Z,1.63
2018-07-03T17:55:58.978Z,1.20
2018-07-03T17:58:27.886Z,1.00
2018-07-03T18:00:56.787Z,1.10
2018-07-03T18:03:25.738Z,1.30
2018-07-03T18:05:54.722Z,1.00
2018-07-03T18:08:23.786Z,1.00
2018-07-03T18:10:52.688Z,0.80
2018-07-03T18:13:21.627Z,1.40
2018-07-03T18:15:50.502Z,1.10
2018-07-03T18:18:19.393Z,1.03
2018-07-03T18:20:48.286Z,0.93
2018-07-03T18:23:17.188Z,0.97
2018-07-03T18:25:46.124Z,1.00
2018-07-03T18:28:15.001Z,1.10
2018-07-03T18:30:43.928Z,1.27
2018-07-03T18:33:13.001Z,0.90
2018-07-03T18:35:41.707Z,1.00
2018-07-03T18:38:10.611Z,1.27
2018-07-03T18:40:39.541Z,1.10
2018-07-03T18:43:08.482Z,1.00
2018-07-03T18:45:37.378Z,1.50
2018-07-03T18:48:06.318Z,1.20
2018-07-03T18:50:35.198Z,1.50
2018-07-03T18:53:04.114Z,1.10
2018-07-03T18:55:33.062Z,1.40
2018-07-03T18:58:01.995Z,1.03
2018-07-03T19:00:30.885Z,1.20
2018-07-03T19:02:59.786Z,1.20
2018-07-03T19:05:28.701Z,1.20
2018-07-03T19:07:57.616Z,1.43
2018-07-03T19:10:26.350Z,1.03
2018-07-03T19:12:55.233Z,1.10
2018-07-03T19:15:24.119Z,1.10
2018-07-03T19:17:53.061Z,1.77
2018-07-03T19:20:21.998Z,1.17
2018-07-03T19:22:50.929Z,1.30
2018-07-03T19:25:19.861Z,1.30
2018-07-03T19:27:48.774Z,1.33
2018-07-03T19:30:17.683Z,1.40
2018-07-03T19:32:46.573Z,1.53
2018-07-03T19:35:15.518Z,1.30
2018-07-03T19:37:44.416Z,1.47
2018-07-03T19:40:13.372Z,1.50
2018-07-03T19:42:52.053Z,1.70
2018-07-03T19:45:21.025Z,1.67
2018-07-03T19:47:49.938Z,1.90
2018-07-03T19:50:18.846Z,1.67
2018-07-03T19:52:47.771Z,1.67
2018-07-03T19:55:16.687Z,1.43
2018-07-03T19:57:45.598Z,1.50
2018-07-03T20:00:14.497Z,1.67
2018-07-03T20:02:43.379Z,1.90
2018-07-03T20:05:12.378Z,1.50
2018-07-03T20:07:41.348Z,1.87
2018-07-03T20:10:09.896Z,2.20
2018-07-03T20:12:38.774Z,1.97
2018-07-03T20:15:07.682Z,1.80
2018-07-03T20:17:36.621Z,2.10
2018-07-03T20:20:05.922Z,2.37
2018-07-03T20:22:34.859Z,2.30
2018-07-03T20:25:03.786Z,2.03
2018-07-03T20:27:32.680Z,2.65
2018-07-03T20:30:01.581Z,2.58
2018-07-03T20:32:30.446Z,2.20
2018-07-03T20:34:59.371Z,2.20
2018-07-03T20:37:28.390Z,2.30
2018-07-03T20:39:57.358Z,2.17
2018-07-03T20:42:26.333Z,2.40
2018-07-03T20:44:55.210Z,2.42
2018-07-03T20:47:24.191Z,2.20
2018-07-03T20:49:53.118Z,2.37
2018-07-03T20:52:22.199Z,2.70
2018-07-03T20:54:51.142Z,2.10
2018-07-03T20:57:20.163Z,2.33
2018-07-03T20:59:48.817Z,2.15
2018-07-03T21:02:17.601Z,2.50
2018-07-03T21:04:46.483Z,2.35
2018-07-03T21:07:15.390Z,2.25
2018-07-03T21:09:44.269Z,2.87
2018-07-03T21:12:13.150Z,2.40
2018-07-03T21:14:42.078Z,2.00
2018-07-03T21:17:10.971Z,2.08
2018-07-03T21:19:39.595Z,2.35
2018-07-03T21:22:08.405Z,2.25
2018-07-03T21:24:37.442Z,1.80
2018-07-03T21:27:06.682Z,2.15
2018-07-03T21:29:35.760Z,2.08
2018-07-03T21:32:04.984Z,2.05
2018-07-03T21:34:34.089Z,2.02
2018-07-03T21:37:03.126Z,2.17
2018-07-03T21:39:32.072Z,2.17
2018-07-03T21:42:01.074Z,2.20
2018-07-03T21:44:30.980Z,1.90
2018-07-03T21:46:59.878Z,2.30
2018-07-03T21:49:28.770Z,2.62
2018-07-03T21:51:57.709Z,1.90
2018-07-03T21:54:26.666Z,1.85
2018-07-03T21:56:55.991Z,2.08
2018-07-03T21:59:24.928Z,2.30
2018-07-03T22:01:53.903Z,2.52
2018-07-03T22:04:23.037Z,2.35
2018-07-03T22:06:52.016Z,2.25
2018-07-03T22:09:20.967Z,1.90
2018-07-03T22:11:49.878Z,2.02
2018-07-03T22:14:18.904Z,2.85
2018-07-03T22:16:48.131Z,2.05
2018-07-03T22:19:17.126Z,1.98
2018-07-03T22:21:46.087Z,1.87
2018-07-03T22:24:14.958Z,2.15
2018-07-03T22:26:43.961Z,1.80
2018-07-03T22:29:12.837Z,2.17
2018-07-03T22:31:41.750Z,1.80
2018-07-03T22:34:10.697Z,2.00
2018-07-03T22:36:39.611Z,1.77
2018-07-03T22:39:09.396Z,2.00
2018-07-03T22:41:38.502Z,2.72
2018-07-03T22:44:07.402Z,2.00
2018-07-03T22:46:36.368Z,1.90
2018-07-03T22:49:05.355Z,2.30
2018-07-03T22:51:34.334Z,2.50
2018-07-03T22:54:03.338Z,2.95
2018-07-03T22:56:32.259Z,2.20
2018-07-03T22:59:01.377Z,2.08
2018-07-03T23:01:30.653Z,2.08
2018-07-03T23:03:59.531Z,2.42
2018-07-03T23:06:28.532Z,1.85
2018-07-03T23:08:57.671Z,2.35
2018-07-03T23:11:27.586Z,1.92
2018-07-03T23:13:56.578Z,1.70
2018-07-03T23:16:25.546Z,1.55
2018-07-03T23:18:54.419Z,2.10
2018-07-03T23:21:23.318Z,1.92
2018-07-03T23:23:52.187Z,2.00
2018-07-03T23:26:21.082Z,2.20
2018-07-03T23:28:49.965Z,2.00
2018-07-03T23:31:18.880Z,2.00
2018-07-03T23:33:47.730Z,2.77
2018-07-03T23:36:16.627Z,2.20
2018-07-03T23:38:45.530Z,1.85
2018-07-03T23:41:14.412Z,2.25
2018-07-03T23:43:43.289Z,1.90
2018-07-03T23:46:23.587Z,2.05
2018-07-03T23:49:03.758Z,1.82
2018-07-03T23:51:44.139Z,1.62
2018-07-03T23:54:24.318Z,1.82
2018-07-03T23:57:04.582Z,2.12
2018-07-03T23:59:44.830Z,1.70
